This is the latest recevied weather packets stored in our database for station/object EA1PI-4. If no packets are shown the sender has not sent any weather packets the latest 10 day(s).
| Time | Temp. | Humidity | Pressure | Rain* | Wind** | Luminosity | Snow |
|---|---|---|---|---|---|---|---|
| 1787594659 | 76° F | 67% | 730.6 mmHg | - | - | - | - |
| 1787594188 | 74° F | 70% | 730.6 mmHg | - | - | - | - |
| 1787501612 | 362° F | 100% | - | - | - | - | - |
| 1787499811 | 72° F | 44% | 666.4 mmHg | - | - | - | - |
| 1787498011 | 72° F | 45% | 666.4 mmHg | - | - | - | - |
| 1787496211 | 71° F | 46% | 666.5 mmHg | - | - | - | - |
| 1787494411 | 71° F | 46% | 666.4 mmHg | - | - | - | - |
| 1787492611 | 70° F | 47% | 666.6 mmHg | - | - | - | - |
| 1787490811 | 70° F | 47% | 666.7 mmHg | - | - | - | - |
| 1787489010 | 69° F | 47% | 666.9 mmHg | - | - | - | - |
| 1787487210 | 69° F | 47% | 667 mmHg | - | - | - | - |
| 1787485410 | 68° F | 49% | 667 mmHg | - | - | - | - |
| 1787483610 | 68° F | 49% | 667.3 mmHg | - | - | - | - |
| 1787481810 | 68° F | 49% | 667.5 mmHg | - | - | - | - |
| 1787480010 | 68° F | 50% | 667.5 mmHg | - | - | - | - |
| 1787478209 | 68° F | 51% | 667.5 mmHg | - | - | - | - |
| 1787476409 | 68° F | 51% | 667.5 mmHg | - | - | - | - |
| 1787474609 | 68° F | 51% | 667.4 mmHg | - | - | - | - |
| 1787472809 | 68° F | 51% | 667.3 mmHg | - | - | - | - |
| 1787471007 | 68° F | 51% | 667.3 mmHg | - | - | - | - |
| 1787469207 | 66° F | 57% | 667.3 mmHg | - | - | - | - |
| 1787389150 | 65° F | 51% | 667.1 mmHg | - | - | - | - |
| 1787387351 | 65° F | 50% | 667.3 mmHg | - | - | - | - |
| 1787385550 | 65° F | 49% | 667.5 mmHg | - | - | - | - |
| 1787383749 | 66° F | 49% | 667.6 mmHg | - | - | - | - |
* Rain since midnight (hover to see other rain measurements)
** Current wind speed in m/s (hover to see current wind gust speed)